sensor_id;sensor_type;location;lat;lon;timestamp;P1;durP1;ratioP1;P2;durP2;ratioP2
17796;SDS011;55596;53.554;9.916;2023-02-01T00:01:07;23.77;;;3.43;;
17796;SDS011;55596;53.554;9.916;2023-02-01T00:03:34;35.60;;;5.97;;
17796;SDS011;55596;53.554;9.916;2023-02-01T00:06:02;26.47;;;4.93;;
17796;SDS011;55596;53.554;9.916;2023-02-01T00:08:29;26.70;;;4.60;;
17796;SDS011;55596;53.554;9.916;2023-02-01T00:10:59;26.83;;;4.53;;
17796;SDS011;55596;53.554;9.916;2023-02-01T00:13:30;34.67;;;5.37;;
17796;SDS011;55596;53.554;9.916;2023-02-01T00:16:04;41.30;;;5.53;;
17796;SDS011;55596;53.554;9.916;2023-02-01T00:18:32;25.27;;;5.00;;
17796;SDS011;55596;53.554;9.916;2023-02-01T00:20:59;43.63;;;5.80;;
17796;SDS011;55596;53.554;9.916;2023-02-01T00:23:27;34.37;;;5.07;;
17796;SDS011;55596;53.554;9.916;2023-02-01T00:25:54;25.77;;;4.73;;
17796;SDS011;55596;53.554;9.916;2023-02-01T00:28:21;25.33;;;4.83;;
17796;SDS011;55596;53.554;9.916;2023-02-01T00:30:55;34.00;;;4.77;;
17796;SDS011;55596;53.554;9.916;2023-02-01T00:33:22;26.50;;;4.87;;
17796;SDS011;55596;53.554;9.916;2023-02-01T00:35:50;32.07;;;5.27;;
17796;SDS011;55596;53.554;9.916;2023-02-01T00:38:16;25.83;;;4.43;;
17796;SDS011;55596;53.554;9.916;2023-02-01T00:40:45;22.70;;;4.27;;
17796;SDS011;55596;53.554;9.916;2023-02-01T00:43:11;31.07;;;5.17;;
17796;SDS011;55596;53.554;9.916;2023-02-01T00:45:38;27.87;;;6.37;;
17796;SDS011;55596;53.554;9.916;2023-02-01T00:48:05;28.53;;;4.97;;
17796;SDS011;55596;53.554;9.916;2023-02-01T00:50:32;31.57;;;5.90;;
17796;SDS011;55596;53.554;9.916;2023-02-01T00:52:59;32.00;;;5.30;;
17796;SDS011;55596;53.554;9.916;2023-02-01T00:55:26;31.10;;;5.13;;
17796;SDS011;55596;53.554;9.916;2023-02-01T00:57:54;31.30;;;5.53;;
17796;SDS011;55596;53.554;9.916;2023-02-01T01:00:24;32.63;;;4.83;;
17796;SDS011;55596;53.554;9.916;2023-02-01T01:02:51;28.27;;;5.23;;
17796;SDS011;55596;53.554;9.916;2023-02-01T01:05:18;32.53;;;5.60;;
17796;SDS011;55596;53.554;9.916;2023-02-01T01:07:45;27.70;;;5.10;;
17796;SDS011;55596;53.554;9.916;2023-02-01T01:10:11;25.37;;;5.50;;
17796;SDS011;55596;53.554;9.916;2023-02-01T01:12:38;36.00;;;5.63;;
17796;SDS011;55596;53.554;9.916;2023-02-01T01:15:07;33.90;;;5.80;;
17796;SDS011;55596;53.554;9.916;2023-02-01T01:17:35;35.67;;;6.30;;
17796;SDS011;55596;53.554;9.916;2023-02-01T01:20:01;37.43;;;6.17;;
17796;SDS011;55596;53.554;9.916;2023-02-01T01:22:28;27.10;;;5.03;;
17796;SDS011;55596;53.554;9.916;2023-02-01T01:24:55;37.67;;;6.10;;
17796;SDS011;55596;53.554;9.916;2023-02-01T01:27:22;29.63;;;5.03;;
17796;SDS011;55596;53.554;9.916;2023-02-01T01:29:50;33.40;;;6.13;;
17796;SDS011;55596;53.554;9.916;2023-02-01T01:32:18;29.67;;;5.37;;
17796;SDS011;55596;53.554;9.916;2023-02-01T01:34:45;36.90;;;6.60;;
17796;SDS011;55596;53.554;9.916;2023-02-01T01:37:12;32.97;;;4.90;;
17796;SDS011;55596;53.554;9.916;2023-02-01T01:39:39;30.10;;;4.93;;
17796;SDS011;55596;53.554;9.916;2023-02-01T01:42:08;31.97;;;5.93;;
17796;SDS011;55596;53.554;9.916;2023-02-01T01:44:56;38.70;;;6.17;;
17796;SDS011;55596;53.554;9.916;2023-02-01T01:47:27;34.10;;;6.77;;
17796;SDS011;55596;53.554;9.916;2023-02-01T01:49:58;29.50;;;5.50;;
17796;SDS011;55596;53.554;9.916;2023-02-01T01:52:25;33.50;;;5.73;;
17796;SDS011;55596;53.554;9.916;2023-02-01T01:54:52;37.23;;;6.20;;
17796;SDS011;55596;53.554;9.916;2023-02-01T01:57:20;33.90;;;4.97;;
17796;SDS011;55596;53.554;9.916;2023-02-01T01:59:55;34.97;;;6.80;;
17796;SDS011;55596;53.554;9.916;2023-02-01T02:02:28;41.57;;;6.10;;
17796;SDS011;55596;53.554;9.916;2023-02-01T02:04:55;32.17;;;6.70;;
17796;SDS011;55596;53.554;9.916;2023-02-01T02:07:23;34.97;;;5.47;;
17796;SDS011;55596;53.554;9.916;2023-02-01T02:09:54;32.60;;;5.77;;
17796;SDS011;55596;53.554;9.916;2023-02-01T02:12:21;42.17;;;6.60;;
17796;SDS011;55596;53.554;9.916;2023-02-01T02:14:48;33.97;;;5.87;;
17796;SDS011;55596;53.554;9.916;2023-02-01T02:17:19;36.87;;;5.80;;
17796;SDS011;55596;53.554;9.916;2023-02-01T02:20:07;37.90;;;6.93;;
17796;SDS011;55596;53.554;9.916;2023-02-01T02:32:05;28.30;;;5.40;;
17796;SDS011;55596;53.554;9.916;2023-02-01T02:35:03;38.03;;;6.53;;
17796;SDS011;55596;53.554;9.916;2023-02-01T02:37:38;42.33;;;7.30;;
17796;SDS011;55596;53.554;9.916;2023-02-01T02:40:09;38.20;;;5.93;;
17796;SDS011;55596;53.554;9.916;2023-02-01T02:42:42;48.97;;;7.33;;
17796;SDS011;55596;53.554;9.916;2023-02-01T02:45:35;40.77;;;6.77;;
17796;SDS011;55596;53.554;9.916;2023-02-01T02:48:25;46.17;;;6.70;;
17796;SDS011;55596;53.554;9.916;2023-02-01T02:50:58;50.73;;;6.57;;
17796;SDS011;55596;53.554;9.916;2023-02-01T02:53:46;38.57;;;6.17;;
17796;SDS011;55596;53.554;9.916;2023-02-01T02:56:35;48.23;;;6.30;;
17796;SDS011;55596;53.554;9.916;2023-02-01T02:59:23;40.70;;;6.40;;
17796;SDS011;55596;53.554;9.916;2023-02-01T03:02:10;43.97;;;7.07;;
17796;SDS011;55596;53.554;9.916;2023-02-01T03:04:55;42.07;;;5.83;;
17796;SDS011;55596;53.554;9.916;2023-02-01T03:10:31;34.53;;;5.63;;
17796;SDS011;55596;53.554;9.916;2023-02-01T03:13:04;38.07;;;6.93;;
17796;SDS011;55596;53.554;9.916;2023-02-01T03:15:35;42.07;;;6.43;;
17796;SDS011;55596;53.554;9.916;2023-02-01T03:18:05;36.07;;;6.70;;
17796;SDS011;55596;53.554;9.916;2023-02-01T03:20:37;39.67;;;5.63;;
17796;SDS011;55596;53.554;9.916;2023-02-01T03:23:09;40.87;;;6.40;;
17796;SDS011;55596;53.554;9.916;2023-02-01T03:25:39;35.73;;;5.53;;
17796;SDS011;55596;53.554;9.916;2023-02-01T03:28:07;30.67;;;4.60;;
17796;SDS011;55596;53.554;9.916;2023-02-01T03:30:36;38.97;;;5.57;;
17796;SDS011;55596;53.554;9.916;2023-02-01T03:33:07;28.53;;;4.80;;
17796;SDS011;55596;53.554;9.916;2023-02-01T03:35:47;34.40;;;4.90;;
17796;SDS011;55596;53.554;9.916;2023-02-01T03:38:22;22.23;;;3.20;;
17796;SDS011;55596;53.554;9.916;2023-02-01T03:40:53;24.20;;;4.30;;
17796;SDS011;55596;53.554;9.916;2023-02-01T03:43:27;22.27;;;3.57;;
17796;SDS011;55596;53.554;9.916;2023-02-01T03:46:00;22.30;;;3.43;;
17796;SDS011;55596;53.554;9.916;2023-02-01T03:48:31;30.43;;;3.67;;
17796;SDS011;55596;53.554;9.916;2023-02-01T03:51:00;24.33;;;4.10;;
17796;SDS011;55596;53.554;9.916;2023-02-01T03:53:32;22.93;;;4.07;;
17796;SDS011;55596;53.554;9.916;2023-02-01T03:56:02;28.27;;;3.70;;
17796;SDS011;55596;53.554;9.916;2023-02-01T03:58:29;30.03;;;4.40;;
17796;SDS011;55596;53.554;9.916;2023-02-01T04:00:56;31.93;;;4.70;;
17796;SDS011;55596;53.554;9.916;2023-02-01T04:03:25;31.13;;;4.63;;
17796;SDS011;55596;53.554;9.916;2023-02-01T04:05:53;26.27;;;4.30;;
17796;SDS011;55596;53.554;9.916;2023-02-01T04:08:21;40.93;;;5.73;;
17796;SDS011;55596;53.554;9.916;2023-02-01T04:10:50;31.97;;;4.73;;
17796;SDS011;55596;53.554;9.916;2023-02-01T04:13:17;27.97;;;4.67;;
17796;SDS011;55596;53.554;9.916;2023-02-01T04:15:44;31.83;;;4.40;;
17796;SDS011;55596;53.554;9.916;2023-02-01T04:18:11;27.57;;;4.30;;
17796;SDS011;55596;53.554;9.916;2023-02-01T04:20:38;29.03;;;4.37;;
17796;SDS011;55596;53.554;9.916;2023-02-01T04:23:05;25.97;;;4.73;;
17796;SDS011;55596;53.554;9.916;2023-02-01T04:25:32;24.43;;;4.27;;
17796;SDS011;55596;53.554;9.916;2023-02-01T04:28:00;22.90;;;3.20;;
17796;SDS011;55596;53.554;9.916;2023-02-01T04:30:27;26.93;;;4.30;;
17796;SDS011;55596;53.554;9.916;2023-02-01T04:32:54;30.50;;;4.00;;
17796;SDS011;55596;53.554;9.916;2023-02-01T04:35:21;29.13;;;3.70;;
17796;SDS011;55596;53.554;9.916;2023-02-01T04:37:48;22.83;;;4.37;;
17796;SDS011;55596;53.554;9.916;2023-02-01T04:40:14;24.10;;;3.83;;
17796;SDS011;55596;53.554;9.916;2023-02-01T04:42:41;30.93;;;4.17;;
17796;SDS011;55596;53.554;9.916;2023-02-01T04:45:10;17.93;;;2.97;;
17796;SDS011;55596;53.554;9.916;2023-02-01T04:47:38;23.43;;;4.23;;
17796;SDS011;55596;53.554;9.916;2023-02-01T04:50:07;27.07;;;3.47;;
17796;SDS011;55596;53.554;9.916;2023-02-01T04:52:35;23.33;;;2.97;;
17796;SDS011;55596;53.554;9.916;2023-02-01T04:55:02;18.80;;;2.50;;
17796;SDS011;55596;53.554;9.916;2023-02-01T04:57:29;17.50;;;2.80;;
17796;SDS011;55596;53.554;9.916;2023-02-01T04:59:56;13.40;;;2.47;;
17796;SDS011;55596;53.554;9.916;2023-02-01T05:02:24;15.43;;;2.53;;
17796;SDS011;55596;53.554;9.916;2023-02-01T05:04:54;22.57;;;2.60;;
17796;SDS011;55596;53.554;9.916;2023-02-01T05:07:21;17.33;;;2.30;;
17796;SDS011;55596;53.554;9.916;2023-02-01T05:09:48;13.37;;;1.67;;
17796;SDS011;55596;53.554;9.916;2023-02-01T05:12:15;14.13;;;2.37;;
17796;SDS011;55596;53.554;9.916;2023-02-01T05:14:59;6.17;;;1.33;;
17796;SDS011;55596;53.554;9.916;2023-02-01T05:17:27;5.97;;;1.37;;
17796;SDS011;55596;53.554;9.916;2023-02-01T05:19:54;2.67;;;0.80;;
17796;SDS011;55596;53.554;9.916;2023-02-01T05:22:21;5.50;;;1.07;;
17796;SDS011;55596;53.554;9.916;2023-02-01T05:24:47;6.80;;;0.70;;
17796;SDS011;55596;53.554;9.916;2023-02-01T05:27:14;5.73;;;0.87;;
17796;SDS011;55596;53.554;9.916;2023-02-01T05:29:41;3.20;;;0.90;;
17796;SDS011;55596;53.554;9.916;2023-02-01T05:32:09;3.33;;;0.87;;
17796;SDS011;55596;53.554;9.916;2023-02-01T05:34:37;2.20;;;0.53;;
17796;SDS011;55596;53.554;9.916;2023-02-01T05:37:04;2.17;;;0.60;;
17796;SDS011;55596;53.554;9.916;2023-02-01T05:39:31;5.63;;;0.80;;
17796;SDS011;55596;53.554;9.916;2023-02-01T05:41:58;2.17;;;0.47;;
17796;SDS011;55596;53.554;9.916;2023-02-01T05:44:25;5.60;;;0.70;;
17796;SDS011;55596;53.554;9.916;2023-02-01T05:46:52;4.40;;;0.63;;
17796;SDS011;55596;53.554;9.916;2023-02-01T05:49:18;4.73;;;0.60;;
17796;SDS011;55596;53.554;9.916;2023-02-01T05:51:47;3.47;;;0.90;;
17796;SDS011;55596;53.554;9.916;2023-02-01T05:54:13;4.27;;;0.70;;
17796;SDS011;55596;53.554;9.916;2023-02-01T05:56:40;2.53;;;0.80;;
17796;SDS011;55596;53.554;9.916;2023-02-01T05:59:08;3.37;;;0.77;;
17796;SDS011;55596;53.554;9.916;2023-02-01T06:01:35;6.27;;;1.00;;
17796;SDS011;55596;53.554;9.916;2023-02-01T06:04:02;3.03;;;0.60;;
17796;SDS011;55596;53.554;9.916;2023-02-01T06:06:29;5.03;;;1.10;;
17796;SDS011;55596;53.554;9.916;2023-02-01T06:08:58;4.73;;;0.90;;
17796;SDS011;55596;53.554;9.916;2023-02-01T06:11:25;3.80;;;0.90;;
17796;SDS011;55596;53.554;9.916;2023-02-01T06:13:52;5.43;;;0.97;;
17796;SDS011;55596;53.554;9.916;2023-02-01T06:16:20;5.10;;;1.10;;
17796;SDS011;55596;53.554;9.916;2023-02-01T06:18:48;6.10;;;1.17;;
17796;SDS011;55596;53.554;9.916;2023-02-01T06:21:15;6.40;;;1.63;;
17796;SDS011;55596;53.554;9.916;2023-02-01T06:23:48;7.60;;;2.10;;
17796;SDS011;55596;53.554;9.916;2023-02-01T06:26:16;6.40;;;1.77;;
17796;SDS011;55596;53.554;9.916;2023-02-01T06:28:43;10.07;;;1.50;;
17796;SDS011;55596;53.554;9.916;2023-02-01T06:31:11;9.73;;;1.77;;
17796;SDS011;55596;53.554;9.916;2023-02-01T06:33:38;9.97;;;1.90;;
17796;SDS011;55596;53.554;9.916;2023-02-01T06:36:06;14.67;;;2.20;;
17796;SDS011;55596;53.554;9.916;2023-02-01T06:38:36;13.33;;;2.00;;
17796;SDS011;55596;53.554;9.916;2023-02-01T06:41:04;14.73;;;2.20;;
17796;SDS011;55596;53.554;9.916;2023-02-01T06:43:32;14.43;;;2.23;;
17796;SDS011;55596;53.554;9.916;2023-02-01T06:46:00;16.10;;;2.70;;
17796;SDS011;55596;53.554;9.916;2023-02-01T06:48:27;17.70;;;2.83;;
17796;SDS011;55596;53.554;9.916;2023-02-01T06:50:54;18.40;;;3.70;;
17796;SDS011;55596;53.554;9.916;2023-02-01T06:53:21;17.87;;;2.87;;
17796;SDS011;55596;53.554;9.916;2023-02-01T06:55:51;24.67;;;4.20;;
17796;SDS011;55596;53.554;9.916;2023-02-01T06:58:19;34.30;;;3.23;;
17796;SDS011;55596;53.554;9.916;2023-02-01T07:00:47;16.23;;;2.90;;
17796;SDS011;55596;53.554;9.916;2023-02-01T07:03:14;24.33;;;3.00;;
17796;SDS011;55596;53.554;9.916;2023-02-01T07:05:41;19.17;;;2.93;;
17796;SDS011;55596;53.554;9.916;2023-02-01T07:08:08;28.80;;;4.03;;
17796;SDS011;55596;53.554;9.916;2023-02-01T07:10:36;34.17;;;4.67;;
17796;SDS011;55596;53.554;9.916;2023-02-01T07:13:04;34.07;;;4.63;;
17796;SDS011;55596;53.554;9.916;2023-02-01T07:15:31;39.20;;;4.83;;
17796;SDS011;55596;53.554;9.916;2023-02-01T07:18:00;47.27;;;6.30;;
17796;SDS011;55596;53.554;9.916;2023-02-01T07:20:27;32.90;;;4.80;;
17796;SDS011;55596;53.554;9.916;2023-02-01T07:22:56;30.70;;;5.30;;
17796;SDS011;55596;53.554;9.916;2023-02-01T07:25:23;33.37;;;5.93;;
17796;SDS011;55596;53.554;9.916;2023-02-01T07:27:51;31.23;;;4.90;;
17796;SDS011;55596;53.554;9.916;2023-02-01T07:30:17;56.33;;;8.07;;
17796;SDS011;55596;53.554;9.916;2023-02-01T07:32:44;48.03;;;6.20;;
17796;SDS011;55596;53.554;9.916;2023-02-01T07:35:13;54.93;;;6.20;;
17796;SDS011;55596;53.554;9.916;2023-02-01T07:37:40;43.70;;;6.13;;
17796;SDS011;55596;53.554;9.916;2023-02-01T07:40:07;51.20;;;6.87;;
17796;SDS011;55596;53.554;9.916;2023-02-01T07:42:35;44.77;;;6.87;;
17796;SDS011;55596;53.554;9.916;2023-02-01T07:45:02;48.77;;;6.40;;
17796;SDS011;55596;53.554;9.916;2023-02-01T07:47:29;53.63;;;7.60;;
17796;SDS011;55596;53.554;9.916;2023-02-01T07:49:56;39.67;;;6.23;;
17796;SDS011;55596;53.554;9.916;2023-02-01T07:52:24;47.33;;;6.90;;
17796;SDS011;55596;53.554;9.916;2023-02-01T07:54:53;44.73;;;6.80;;
17796;SDS011;55596;53.554;9.916;2023-02-01T07:57:20;53.57;;;7.47;;
17796;SDS011;55596;53.554;9.916;2023-02-01T07:59:47;42.20;;;7.27;;
17796;SDS011;55596;53.554;9.916;2023-02-01T08:02:31;40.63;;;6.63;;
17796;SDS011;55596;53.554;9.916;2023-02-01T08:04:58;42.53;;;5.97;;
17796;SDS011;55596;53.554;9.916;2023-02-01T08:07:26;49.40;;;8.10;;
17796;SDS011;55596;53.554;9.916;2023-02-01T08:09:53;45.20;;;6.73;;
17796;SDS011;55596;53.554;9.916;2023-02-01T08:12:20;48.30;;;6.70;;
17796;SDS011;55596;53.554;9.916;2023-02-01T08:14:46;45.37;;;6.37;;
17796;SDS011;55596;53.554;9.916;2023-02-01T08:17:13;43.93;;;7.40;;
17796;SDS011;55596;53.554;9.916;2023-02-01T08:19:40;41.73;;;5.93;;
17796;SDS011;55596;53.554;9.916;2023-02-01T08:22:07;41.23;;;6.23;;
17796;SDS011;55596;53.554;9.916;2023-02-01T08:24:35;47.73;;;7.07;;
17796;SDS011;55596;53.554;9.916;2023-02-01T08:27:04;49.20;;;6.73;;
17796;SDS011;55596;53.554;9.916;2023-02-01T08:29:31;48.57;;;6.60;;
17796;SDS011;55596;53.554;9.916;2023-02-01T08:31:58;48.43;;;6.87;;
17796;SDS011;55596;53.554;9.916;2023-02-01T08:34:25;35.67;;;5.07;;
17796;SDS011;55596;53.554;9.916;2023-02-01T08:36:52;42.50;;;6.23;;
17796;SDS011;55596;53.554;9.916;2023-02-01T08:39:23;48.37;;;6.00;;
17796;SDS011;55596;53.554;9.916;2023-02-01T08:41:51;40.53;;;5.97;;
17796;SDS011;55596;53.554;9.916;2023-02-01T08:44:32;40.90;;;6.27;;
17796;SDS011;55596;53.554;9.916;2023-02-01T08:46:59;37.20;;;5.53;;
17796;SDS011;55596;53.554;9.916;2023-02-01T08:49:26;38.03;;;6.63;;
17796;SDS011;55596;53.554;9.916;2023-02-01T08:51:53;35.13;;;6.80;;
17796;SDS011;55596;53.554;9.916;2023-02-01T08:54:20;40.73;;;5.93;;
17796;SDS011;55596;53.554;9.916;2023-02-01T08:56:47;39.27;;;5.77;;
17796;SDS011;55596;53.554;9.916;2023-02-01T08:59:15;36.50;;;6.03;;
17796;SDS011;55596;53.554;9.916;2023-02-01T09:01:42;44.27;;;5.67;;
17796;SDS011;55596;53.554;9.916;2023-02-01T09:04:09;33.00;;;6.10;;
17796;SDS011;55596;53.554;9.916;2023-02-01T09:06:36;35.90;;;5.93;;
17796;SDS011;55596;53.554;9.916;2023-02-01T09:09:06;37.93;;;5.97;;
17796;SDS011;55596;53.554;9.916;2023-02-01T09:11:33;40.27;;;6.13;;
17796;SDS011;55596;53.554;9.916;2023-02-01T09:14:00;38.10;;;5.47;;
17796;SDS011;55596;53.554;9.916;2023-02-01T09:16:28;34.10;;;6.30;;
17796;SDS011;55596;53.554;9.916;2023-02-01T09:18:55;37.00;;;4.70;;
17796;SDS011;55596;53.554;9.916;2023-02-01T09:21:22;30.83;;;5.23;;
17796;SDS011;55596;53.554;9.916;2023-02-01T09:23:50;29.13;;;5.50;;
17796;SDS011;55596;53.554;9.916;2023-02-01T09:26:17;32.63;;;4.73;;
17796;SDS011;55596;53.554;9.916;2023-02-01T09:28:44;27.53;;;5.37;;
17796;SDS011;55596;53.554;9.916;2023-02-01T09:31:10;25.97;;;4.47;;
17796;SDS011;55596;53.554;9.916;2023-02-01T09:33:39;34.83;;;5.37;;
17796;SDS011;55596;53.554;9.916;2023-02-01T09:36:06;31.40;;;5.17;;
17796;SDS011;55596;53.554;9.916;2023-02-01T09:38:33;32.20;;;5.47;;
17796;SDS011;55596;53.554;9.916;2023-02-01T09:41:00;40.73;;;5.27;;
17796;SDS011;55596;53.554;9.916;2023-02-01T09:43:36;30.73;;;4.77;;
17796;SDS011;55596;53.554;9.916;2023-02-01T09:46:13;30.40;;;4.80;;
17796;SDS011;55596;53.554;9.916;2023-02-01T09:48:49;34.43;;;5.17;;
17796;SDS011;55596;53.554;9.916;2023-02-01T09:51:20;35.63;;;4.87;;
17796;SDS011;55596;53.554;9.916;2023-02-01T09:53:52;32.17;;;5.20;;
17796;SDS011;55596;53.554;9.916;2023-02-01T09:56:26;30.53;;;5.40;;
17796;SDS011;55596;53.554;9.916;2023-02-01T09:59:04;33.47;;;6.17;;
17796;SDS011;55596;53.554;9.916;2023-02-01T10:01:36;33.00;;;5.43;;
17796;SDS011;55596;53.554;9.916;2023-02-01T10:04:06;29.13;;;4.60;;
17796;SDS011;55596;53.554;9.916;2023-02-01T10:06:44;36.77;;;4.60;;
17796;SDS011;55596;53.554;9.916;2023-02-01T10:09:21;29.00;;;4.87;;
17796;SDS011;55596;53.554;9.916;2023-02-01T10:12:15;30.53;;;4.60;;
17796;SDS011;55596;53.554;9.916;2023-02-01T10:14:57;27.17;;;4.37;;
17796;SDS011;55596;53.554;9.916;2023-02-01T10:17:31;19.70;;;3.87;;
17796;SDS011;55596;53.554;9.916;2023-02-01T10:20:14;23.73;;;4.23;;
17796;SDS011;55596;53.554;9.916;2023-02-01T10:22:50;26.63;;;3.93;;
17796;SDS011;55596;53.554;9.916;2023-02-01T10:25:23;30.53;;;4.67;;
17796;SDS011;55596;53.554;9.916;2023-02-01T10:27:54;26.50;;;4.47;;
17796;SDS011;55596;53.554;9.916;2023-02-01T10:30:23;21.73;;;4.17;;
17796;SDS011;55596;53.554;9.916;2023-02-01T10:32:56;25.43;;;4.47;;
17796;SDS011;55596;53.554;9.916;2023-02-01T10:35:28;25.13;;;4.47;;
17796;SDS011;55596;53.554;9.916;2023-02-01T10:38:01;31.60;;;5.17;;
17796;SDS011;55596;53.554;9.916;2023-02-01T10:40:28;26.20;;;5.53;;
17796;SDS011;55596;53.554;9.916;2023-02-01T10:42:56;31.83;;;5.70;;
17796;SDS011;55596;53.554;9.916;2023-02-01T10:45:27;36.40;;;4.20;;
17796;SDS011;55596;53.554;9.916;2023-02-01T10:47:57;40.87;;;5.97;;
17796;SDS011;55596;53.554;9.916;2023-02-01T10:50:32;35.20;;;4.90;;
17796;SDS011;55596;53.554;9.916;2023-02-01T10:53:04;36.63;;;5.10;;
17796;SDS011;55596;53.554;9.916;2023-02-01T10:55:37;31.93;;;4.60;;
17796;SDS011;55596;53.554;9.916;2023-02-01T10:58:06;36.07;;;4.73;;
17796;SDS011;55596;53.554;9.916;2023-02-01T11:00:44;33.37;;;5.07;;
17796;SDS011;55596;53.554;9.916;2023-02-01T11:03:19;35.93;;;4.63;;
17796;SDS011;55596;53.554;9.916;2023-02-01T11:05:59;37.00;;;5.77;;
17796;SDS011;55596;53.554;9.916;2023-02-01T11:08:26;32.77;;;4.37;;
17796;SDS011;55596;53.554;9.916;2023-02-01T11:10:57;29.57;;;4.33;;
17796;SDS011;55596;53.554;9.916;2023-02-01T11:13:29;25.23;;;4.20;;
17796;SDS011;55596;53.554;9.916;2023-02-01T11:16:00;22.13;;;4.40;;
17796;SDS011;55596;53.554;9.916;2023-02-01T11:18:30;35.13;;;5.83;;
17796;SDS011;55596;53.554;9.916;2023-02-01T11:20:59;26.37;;;5.07;;
17796;SDS011;55596;53.554;9.916;2023-02-01T11:23:27;24.70;;;4.07;;
17796;SDS011;55596;53.554;9.916;2023-02-01T11:25:56;28.37;;;4.20;;
17796;SDS011;55596;53.554;9.916;2023-02-01T11:28:25;29.40;;;4.40;;
17796;SDS011;55596;53.554;9.916;2023-02-01T11:30:55;34.73;;;4.77;;
17796;SDS011;55596;53.554;9.916;2023-02-01T11:33:26;27.30;;;4.83;;
17796;SDS011;55596;53.554;9.916;2023-02-01T11:36:00;27.87;;;4.37;;
17796;SDS011;55596;53.554;9.916;2023-02-01T11:38:33;29.93;;;5.03;;
17796;SDS011;55596;53.554;9.916;2023-02-01T11:41:11;25.60;;;4.87;;
17796;SDS011;55596;53.554;9.916;2023-02-01T11:43:49;25.90;;;4.10;;
17796;SDS011;55596;53.554;9.916;2023-02-01T11:46:23;22.77;;;4.13;;
17796;SDS011;55596;53.554;9.916;2023-02-01T11:48:53;31.17;;;4.17;;
17796;SDS011;55596;53.554;9.916;2023-02-01T11:51:27;24.77;;;3.83;;
17796;SDS011;55596;53.554;9.916;2023-02-01T11:56:55;22.60;;;3.73;;
17796;SDS011;55596;53.554;9.916;2023-02-01T11:59:45;23.03;;;3.70;;
17796;SDS011;55596;53.554;9.916;2023-02-01T12:05:25;13.83;;;2.77;;
17796;SDS011;55596;53.554;9.916;2023-02-01T12:08:05;16.87;;;2.97;;
17796;SDS011;55596;53.554;9.916;2023-02-01T12:10:52;17.27;;;2.77;;
17796;SDS011;55596;53.554;9.916;2023-02-01T12:13:34;34.73;;;3.70;;
17796;SDS011;55596;53.554;9.916;2023-02-01T12:16:11;28.20;;;3.90;;
17796;SDS011;55596;53.554;9.916;2023-02-01T12:18:58;15.43;;;3.03;;
17796;SDS011;55596;53.554;9.916;2023-02-01T12:21:43;25.93;;;3.87;;
17796;SDS011;55596;53.554;9.916;2023-02-01T12:27:29;16.50;;;2.70;;
17796;SDS011;55596;53.554;9.916;2023-02-01T12:30:16;18.10;;;2.50;;
17796;SDS011;55596;53.554;9.916;2023-02-01T12:33:03;11.67;;;2.13;;
17796;SDS011;55596;53.554;9.916;2023-02-01T12:35:41;16.60;;;2.17;;
17796;SDS011;55596;53.554;9.916;2023-02-01T12:38:18;9.77;;;2.03;;
17796;SDS011;55596;53.554;9.916;2023-02-01T12:41:06;6.80;;;1.27;;
17796;SDS011;55596;53.554;9.916;2023-02-01T12:43:46;8.03;;;1.30;;
17796;SDS011;55596;53.554;9.916;2023-02-01T12:46:21;7.43;;;1.40;;
17796;SDS011;55596;53.554;9.916;2023-02-01T12:48:54;5.60;;;1.07;;
17796;SDS011;55596;53.554;9.916;2023-02-01T12:51:26;6.50;;;0.90;;
17796;SDS011;55596;53.554;9.916;2023-02-01T12:53:57;5.37;;;0.83;;
17796;SDS011;55596;53.554;9.916;2023-02-01T12:56:30;4.57;;;1.10;;
17796;SDS011;55596;53.554;9.916;2023-02-01T12:59:02;5.97;;;0.90;;
17796;SDS011;55596;53.554;9.916;2023-02-01T13:01:39;2.87;;;0.53;;
17796;SDS011;55596;53.554;9.916;2023-02-01T13:04:10;2.17;;;0.87;;
17796;SDS011;55596;53.554;9.916;2023-02-01T13:06:43;2.57;;;0.83;;
17796;SDS011;55596;53.554;9.916;2023-02-01T13:09:15;2.50;;;0.60;;
17796;SDS011;55596;53.554;9.916;2023-02-01T13:11:51;2.90;;;0.67;;
17796;SDS011;55596;53.554;9.916;2023-02-01T13:14:25;2.10;;;0.70;;
17796;SDS011;55596;53.554;9.916;2023-02-01T13:16:59;5.93;;;1.07;;
17796;SDS011;55596;53.554;9.916;2023-02-01T13:19:29;2.60;;;0.80;;
17796;SDS011;55596;53.554;9.916;2023-02-01T13:22:04;4.80;;;0.90;;
17796;SDS011;55596;53.554;9.916;2023-02-01T13:24:38;5.77;;;1.47;;
17796;SDS011;55596;53.554;9.916;2023-02-01T13:27:12;2.27;;;0.70;;
17796;SDS011;55596;53.554;9.916;2023-02-01T13:29:43;0.70;;;0.50;;
17796;SDS011;55596;53.554;9.916;2023-02-01T13:35:22;1.67;;;0.60;;
17796;SDS011;55596;53.554;9.916;2023-02-01T13:38:05;2.67;;;0.60;;
17796;SDS011;55596;53.554;9.916;2023-02-01T13:41:07;1.93;;;0.47;;
17796;SDS011;55596;53.554;9.916;2023-02-01T13:43:45;1.90;;;0.57;;
17796;SDS011;55596;53.554;9.916;2023-02-01T13:46:15;5.13;;;0.80;;
17796;SDS011;55596;53.554;9.916;2023-02-01T13:48:45;1.20;;;0.60;;
17796;SDS011;55596;53.554;9.916;2023-02-01T13:51:15;7.03;;;0.97;;
17796;SDS011;55596;53.554;9.916;2023-02-01T13:53:56;1.73;;;0.63;;
17796;SDS011;55596;53.554;9.916;2023-02-01T13:56:23;3.77;;;0.70;;
17796;SDS011;55596;53.554;9.916;2023-02-01T13:58:52;4.20;;;0.87;;
17796;SDS011;55596;53.554;9.916;2023-02-01T14:07:18;4.67;;;1.17;;
17796;SDS011;55596;53.554;9.916;2023-02-01T14:09:47;6.83;;;1.10;;
17796;SDS011;55596;53.554;9.916;2023-02-01T14:15:18;8.03;;;1.10;;
17796;SDS011;55596;53.554;9.916;2023-02-01T14:17:50;5.50;;;1.20;;
17796;SDS011;55596;53.554;9.916;2023-02-01T14:23:19;11.20;;;1.53;;
17796;SDS011;55596;53.554;9.916;2023-02-01T14:26:04;8.30;;;1.43;;
17796;SDS011;55596;53.554;9.916;2023-02-01T14:28:53;10.47;;;1.80;;
17796;SDS011;55596;53.554;9.916;2023-02-01T14:31:35;14.20;;;1.87;;
17796;SDS011;55596;53.554;9.916;2023-02-01T14:34:11;16.40;;;2.17;;
17796;SDS011;55596;53.554;9.916;2023-02-01T14:36:44;15.87;;;2.17;;
17796;SDS011;55596;53.554;9.916;2023-02-01T14:39:30;12.43;;;1.50;;
17796;SDS011;55596;53.554;9.916;2023-02-01T14:42:04;14.47;;;2.20;;
17796;SDS011;55596;53.554;9.916;2023-02-01T14:44:40;14.77;;;2.43;;
17796;SDS011;55596;53.554;9.916;2023-02-01T14:50:16;9.53;;;1.73;;
17796;SDS011;55596;53.554;9.916;2023-02-01T14:55:47;13.37;;;2.63;;
17796;SDS011;55596;53.554;9.916;2023-02-01T14:58:19;15.20;;;2.67;;
17796;SDS011;55596;53.554;9.916;2023-02-01T15:00:54;23.40;;;2.77;;
17796;SDS011;55596;53.554;9.916;2023-02-01T15:03:27;25.30;;;2.83;;
17796;SDS011;55596;53.554;9.916;2023-02-01T15:06:18;24.63;;;3.27;;
17796;SDS011;55596;53.554;9.916;2023-02-01T15:08:49;22.87;;;2.80;;
17796;SDS011;55596;53.554;9.916;2023-02-01T15:11:20;22.23;;;3.30;;
17796;SDS011;55596;53.554;9.916;2023-02-01T15:13:48;23.07;;;3.40;;
17796;SDS011;55596;53.554;9.916;2023-02-01T15:16:18;16.47;;;2.83;;
17796;SDS011;55596;53.554;9.916;2023-02-01T15:18:47;17.87;;;2.60;;
17796;SDS011;55596;53.554;9.916;2023-02-01T15:21:16;19.63;;;2.80;;
17796;SDS011;55596;53.554;9.916;2023-02-01T15:23:45;15.30;;;2.37;;
17796;SDS011;55596;53.554;9.916;2023-02-01T15:26:24;13.90;;;2.30;;
17796;SDS011;55596;53.554;9.916;2023-02-01T15:28:52;19.50;;;2.77;;
17796;SDS011;55596;53.554;9.916;2023-02-01T15:31:30;16.10;;;2.47;;
17796;SDS011;55596;53.554;9.916;2023-02-01T15:33:59;15.17;;;2.60;;
17796;SDS011;55596;53.554;9.916;2023-02-01T15:36:27;18.23;;;2.20;;
17796;SDS011;55596;53.554;9.916;2023-02-01T15:41:51;15.10;;;3.67;;
17796;SDS011;55596;53.554;9.916;2023-02-01T15:44:22;20.10;;;3.17;;
17796;SDS011;55596;53.554;9.916;2023-02-01T15:46:56;22.20;;;2.60;;